Aviation Digital Data Service (ADDS)

Output produced by TAFs form (1656 UTC 23 April 2014)
found at http://www.aviationweather.gov/adds/tafs/
 
KABE 231437Z 2315/2412 31020G30KT P6SM BKN035 
     TEMPO 2320/2324 SCT040 
     FM240000 31015G25KT P6SM SCT250 
     FM240700 29015KT P6SM SKC